sensor_id;sensor_type;location;lat;lon;timestamp;pressure;altitude;pressure_sealevel;temperature;humidity
75312;BME280;63906;55.686;37.532;2024-02-04T00:02:17;96396.59;;;-0.66;93.74
75312;BME280;63906;55.686;37.532;2024-02-04T00:07:17;96422.03;;;-0.17;93.04
75312;BME280;63906;55.686;37.532;2024-02-04T00:12:18;96398.75;;;-0.17;93.08
75312;BME280;63906;55.686;37.532;2024-02-04T00:17:18;96334.81;;;-0.55;93.10
75312;BME280;63906;55.686;37.532;2024-02-04T00:22:19;96390.16;;;0.03;94.06
75312;BME280;63906;55.686;37.532;2024-02-04T00:27:20;96380.63;;;0.03;93.82
75312;BME280;63906;55.686;37.532;2024-02-04T00:32:20;96375.63;;;0.15;93.46
75312;BME280;63906;55.686;37.532;2024-02-04T00:37:21;96362.31;;;0.05;94.12
75312;BME280;63906;55.686;37.532;2024-02-04T00:42:30;96347.59;;;0.05;93.99
75312;BME280;63906;55.686;37.532;2024-02-04T00:47:30;96343.66;;;-0.04;94.23
75312;BME280;63906;55.686;37.532;2024-02-04T00:52:31;96339.97;;;0.23;94.19
75312;BME280;63906;55.686;37.532;2024-02-04T00:57:31;96339.25;;;0.48;93.70
75312;BME280;63906;55.686;37.532;2024-02-04T01:02:32;96256.13;;;-0.01;93.58
75312;BME280;63906;55.686;37.532;2024-02-04T01:07:32;96291.09;;;0.09;93.84
75312;BME280;63906;55.686;37.532;2024-02-04T01:12:33;96332.72;;;0.45;94.54
75312;BME280;63906;55.686;37.532;2024-02-04T01:17:33;96303.19;;;0.21;94.84
75312;BME280;63906;55.686;37.532;2024-02-04T01:22:34;96301.25;;;0.48;94.39
75312;BME280;63906;55.686;37.532;2024-02-04T01:27:34;96289.22;;;0.29;94.74
75312;BME280;63906;55.686;37.532;2024-02-04T01:32:35;96280.34;;;0.12;95.03
75312;BME280;63906;55.686;37.532;2024-02-04T01:37:35;96257.66;;;0.14;95.61
75312;BME280;63906;55.686;37.532;2024-02-04T01:42:36;96259.66;;;0.12;95.79
75312;BME280;63906;55.686;37.532;2024-02-04T01:47:36;96255.53;;;0.36;95.84
75312;BME280;63906;55.686;37.532;2024-02-04T01:52:39;96251.84;;;0.57;95.07
75312;BME280;63906;55.686;37.532;2024-02-04T01:57:41;96233.56;;;0.20;95.74
75312;BME280;63906;55.686;37.532;2024-02-04T02:02:42;96243.81;;;0.65;95.20
75312;BME280;63906;55.686;37.532;2024-02-04T02:07:46;96221.94;;;0.61;95.83
75312;BME280;63906;55.686;37.532;2024-02-04T02:13:00;96242.94;;;0.77;95.84
75312;BME280;63906;55.686;37.532;2024-02-04T02:18:10;96211.41;;;0.62;96.00
75312;BME280;63906;55.686;37.532;2024-02-04T02:23:14;96224.13;;;0.89;95.85
75312;BME280;63906;55.686;37.532;2024-02-04T02:28:18;96188.63;;;0.71;96.41
75312;BME280;63906;55.686;37.532;2024-02-04T02:33:20;96201.91;;;0.81;96.52
75312;BME280;63906;55.686;37.532;2024-02-04T02:38:37;96215.72;;;0.93;96.86
75312;BME280;63906;55.686;37.532;2024-02-04T02:43:43;96202.56;;;0.95;96.96
75312;BME280;63906;55.686;37.532;2024-02-04T02:48:44;96138.78;;;0.57;96.78
75312;BME280;63906;55.686;37.532;2024-02-04T02:53:44;96189.78;;;1.00;97.00
75312;BME280;63906;55.686;37.532;2024-02-04T02:58:45;96169.63;;;1.02;97.09
75312;BME280;63906;55.686;37.532;2024-02-04T03:03:45;96153.53;;;1.00;96.98
75312;BME280;63906;55.686;37.532;2024-02-04T03:08:46;96162.81;;;1.07;97.07
75312;BME280;63906;55.686;37.532;2024-02-04T03:13:46;96174.59;;;1.22;97.19
75312;BME280;63906;55.686;37.532;2024-02-04T03:18:47;96152.00;;;1.11;97.54
75312;BME280;63906;55.686;37.532;2024-02-04T03:23:47;96146.56;;;1.19;97.80
75312;BME280;63906;55.686;37.532;2024-02-04T03:28:48;96126.88;;;0.93;98.23
75312;BME280;63906;55.686;37.532;2024-02-04T03:33:49;96152.59;;;1.13;98.46
75312;BME280;63906;55.686;37.532;2024-02-04T03:38:51;96136.31;;;1.05;98.14
75312;BME280;63906;55.686;37.532;2024-02-04T03:43:52;96150.88;;;1.25;97.90
75312;BME280;63906;55.686;37.532;2024-02-04T03:48:52;96139.41;;;1.32;98.13
75312;BME280;63906;55.686;37.532;2024-02-04T03:53:53;96118.63;;;1.21;97.74
75312;BME280;63906;55.686;37.532;2024-02-04T03:58:53;96132.28;;;1.28;98.67
75312;BME280;63906;55.686;37.532;2024-02-04T04:03:54;96132.78;;;1.37;98.28
75312;BME280;63906;55.686;37.532;2024-02-04T04:08:54;96108.63;;;1.24;98.90
75312;BME280;63906;55.686;37.532;2024-02-04T04:13:55;96121.63;;;1.36;98.55
75312;BME280;63906;55.686;37.532;2024-02-04T04:18:55;96140.91;;;1.40;98.85
75312;BME280;63906;55.686;37.532;2024-02-04T04:23:56;96127.09;;;1.46;99.29
75312;BME280;63906;55.686;37.532;2024-02-04T04:28:56;96096.59;;;1.30;98.86
75312;BME280;63906;55.686;37.532;2024-02-04T04:33:57;96029.16;;;0.88;98.95
75312;BME280;63906;55.686;37.532;2024-02-04T04:38:57;96110.84;;;1.39;98.87
75312;BME280;63906;55.686;37.532;2024-02-04T04:43:58;96110.28;;;1.37;99.18
75312;BME280;63906;55.686;37.532;2024-02-04T04:48:58;96093.34;;;1.34;99.59
75312;BME280;63906;55.686;37.532;2024-02-04T04:53:59;96097.88;;;1.39;99.69
75312;BME280;63906;55.686;37.532;2024-02-04T04:58:59;96089.22;;;1.45;99.74
75312;BME280;63906;55.686;37.532;2024-02-04T05:04:00;96076.41;;;1.50;100.00
75312;BME280;63906;55.686;37.532;2024-02-04T05:09:01;96056.84;;;1.36;99.98
75312;BME280;63906;55.686;37.532;2024-02-04T05:14:01;96085.03;;;1.63;100.00
75312;BME280;63906;55.686;37.532;2024-02-04T05:19:02;96091.59;;;1.77;100.00
75312;BME280;63906;55.686;37.532;2024-02-04T05:24:03;96090.25;;;1.74;100.00
75312;BME280;63906;55.686;37.532;2024-02-04T05:29:03;96062.41;;;1.70;100.00
75312;BME280;63906;55.686;37.532;2024-02-04T05:34:07;96086.59;;;1.64;100.00
75312;BME280;63906;55.686;37.532;2024-02-04T05:39:15;96074.38;;;1.52;100.00
75312;BME280;63906;55.686;37.532;2024-02-04T05:44:19;96061.66;;;1.51;100.00
75312;BME280;63906;55.686;37.532;2024-02-04T05:49:20;96076.41;;;1.50;100.00
75312;BME280;63906;55.686;37.532;2024-02-04T05:54:20;96038.72;;;1.36;100.00
75312;BME280;63906;55.686;37.532;2024-02-04T05:59:21;96075.53;;;1.56;100.00
75312;BME280;63906;55.686;37.532;2024-02-04T06:04:21;96026.25;;;1.15;100.00
75312;BME280;63906;55.686;37.532;2024-02-04T06:09:22;96092.66;;;1.57;100.00
75312;BME280;63906;55.686;37.532;2024-02-04T06:14:23;96097.47;;;1.54;100.00
75312;BME280;63906;55.686;37.532;2024-02-04T06:19:24;96107.94;;;1.47;100.00
75312;BME280;63906;55.686;37.532;2024-02-04T06:24:24;96118.31;;;1.47;100.00
75312;BME280;63906;55.686;37.532;2024-02-04T06:29:24;96106.34;;;1.46;100.00
75312;BME280;63906;55.686;37.532;2024-02-04T06:34:25;96137.28;;;1.59;100.00
75312;BME280;63906;55.686;37.532;2024-02-04T06:39:26;96133.72;;;1.42;100.00
75312;BME280;63906;55.686;37.532;2024-02-04T06:44:26;96152.72;;;1.36;100.00
75312;BME280;63906;55.686;37.532;2024-02-04T06:49:26;96112.44;;;1.03;100.00
75312;BME280;63906;55.686;37.532;2024-02-04T06:54:27;96137.03;;;0.94;100.00
75312;BME280;63906;55.686;37.532;2024-02-04T06:59:30;96177.63;;;1.19;100.00
75312;BME280;63906;55.686;37.532;2024-02-04T07:04:31;96177.69;;;1.12;100.00
75312;BME280;63906;55.686;37.532;2024-02-04T07:09:34;96201.50;;;1.21;100.00
75312;BME280;63906;55.686;37.532;2024-02-04T07:14:34;96212.88;;;1.20;100.00
75312;BME280;63906;55.686;37.532;2024-02-04T07:19:38;96206.75;;;1.14;100.00
75312;BME280;63906;55.686;37.532;2024-02-04T07:24:38;96168.13;;;0.94;100.00
75312;BME280;63906;55.686;37.532;2024-02-04T07:29:39;96195.09;;;1.23;100.00
75312;BME280;63906;55.686;37.532;2024-02-04T07:34:39;96241.66;;;1.30;100.00
75312;BME280;63906;55.686;37.532;2024-02-04T07:39:40;96250.16;;;1.19;100.00
75312;BME280;63906;55.686;37.532;2024-02-04T07:44:40;96249.72;;;1.22;100.00
75312;BME280;63906;55.686;37.532;2024-02-04T07:49:40;96266.22;;;1.27;100.00
75312;BME280;63906;55.686;37.532;2024-02-04T07:54:44;96268.91;;;1.14;100.00
75312;BME280;63906;55.686;37.532;2024-02-04T07:59:45;96280.34;;;1.06;100.00
75312;BME280;63906;55.686;37.532;2024-02-04T08:04:46;96235.16;;;0.77;100.00
75312;BME280;63906;55.686;37.532;2024-02-04T08:09:46;96294.53;;;0.97;100.00
75312;BME280;63906;55.686;37.532;2024-02-04T08:14:46;96313.78;;;0.83;100.00
75312;BME280;63906;55.686;37.532;2024-02-04T08:19:47;96311.09;;;0.96;100.00
75312;BME280;63906;55.686;37.532;2024-02-04T08:24:47;96264.88;;;0.68;100.00
75312;BME280;63906;55.686;37.532;2024-02-04T08:29:48;96342.78;;;0.92;100.00
75312;BME280;63906;55.686;37.532;2024-02-04T08:34:48;96347.56;;;0.95;100.00
75312;BME280;63906;55.686;37.532;2024-02-04T08:39:49;96363.84;;;1.02;100.00
75312;BME280;63906;55.686;37.532;2024-02-04T08:44:49;96353.00;;;1.12;100.00
75312;BME280;63906;55.686;37.532;2024-02-04T08:49:50;96360.59;;;1.13;100.00
75312;BME280;63906;55.686;37.532;2024-02-04T08:54:50;96371.25;;;1.23;100.00
75312;BME280;63906;55.686;37.532;2024-02-04T08:59:51;96362.13;;;1.21;100.00
75312;BME280;63906;55.686;37.532;2024-02-04T09:04:51;96379.69;;;1.19;100.00
75312;BME280;63906;55.686;37.532;2024-02-04T09:09:52;96402.88;;;1.07;99.92
75312;BME280;63906;55.686;37.532;2024-02-04T09:14:52;96369.81;;;1.02;99.79
75312;BME280;63906;55.686;37.532;2024-02-04T09:19:53;96436.66;;;1.19;99.53
75312;BME280;63906;55.686;37.532;2024-02-04T09:24:54;96347.09;;;1.04;99.00
75312;BME280;63906;55.686;37.532;2024-02-04T09:29:54;96379.69;;;1.19;98.66
75312;BME280;63906;55.686;37.532;2024-02-04T09:34:55;96372.03;;;1.24;98.77
75312;BME280;63906;55.686;37.532;2024-02-04T09:39:56;96386.66;;;1.43;98.45
75312;BME280;63906;55.686;37.532;2024-02-04T09:44:57;96417.44;;;1.33;97.57
75312;BME280;63906;55.686;37.532;2024-02-04T09:49:57;96362.03;;;1.02;96.83
75312;BME280;63906;55.686;37.532;2024-02-04T09:55:00;96325.50;;;0.86;96.78
75312;BME280;63906;55.686;37.532;2024-02-04T10:00:05;96403.91;;;1.31;97.75
75312;BME280;63906;55.686;37.532;2024-02-04T10:05:06;96415.63;;;1.33;94.52
75312;BME280;63906;55.686;37.532;2024-02-04T10:10:08;96427.78;;;1.33;93.78
75312;BME280;63906;55.686;37.532;2024-02-04T10:15:09;96421.44;;;1.29;92.40
75312;BME280;63906;55.686;37.532;2024-02-04T10:20:10;96426.44;;;1.30;93.84
75312;BME280;63906;55.686;37.532;2024-02-04T10:25:12;96444.53;;;1.37;93.39
75312;BME280;63906;55.686;37.532;2024-02-04T10:30:13;96419.75;;;1.41;91.83
75312;BME280;63906;55.686;37.532;2024-02-04T10:35:14;96429.50;;;1.46;92.73
75312;BME280;63906;55.686;37.532;2024-02-04T10:40:15;96439.88;;;1.46;90.70
75312;BME280;63906;55.686;37.532;2024-02-04T10:45:17;96492.41;;;1.59;91.75
75312;BME280;63906;55.686;37.532;2024-02-04T10:50:18;96494.16;;;1.66;92.16
75312;BME280;63906;55.686;37.532;2024-02-04T10:55:26;96399.47;;;1.38;92.71
75312;BME280;63906;55.686;37.532;2024-02-04T11:00:28;96450.41;;;1.76;91.44
75312;BME280;63906;55.686;37.532;2024-02-04T11:05:29;96461.69;;;1.88;91.37
75312;BME280;63906;55.686;37.532;2024-02-04T11:10:31;96469.75;;;1.98;92.26
75312;BME280;63906;55.686;37.532;2024-02-04T11:15:36;96455.59;;;2.01;90.09
75312;BME280;63906;55.686;37.532;2024-02-04T11:25:49;96387.50;;;1.87;91.51
75312;BME280;63906;55.686;37.532;2024-02-04T11:30:51;96440.25;;;2.54;90.24
75312;BME280;63906;55.686;37.532;2024-02-04T11:35:59;96476.09;;;2.64;88.34
75312;BME280;63906;55.686;37.532;2024-02-04T11:40:59;96489.00;;;2.52;89.02
75312;BME280;63906;55.686;37.532;2024-02-04T11:46:03;96341.78;;;1.49;88.40
75312;BME280;63906;55.686;37.532;2024-02-04T11:51:04;96414.66;;;2.21;89.21
75312;BME280;63906;55.686;37.532;2024-02-04T11:56:05;96442.63;;;2.19;90.00
75312;BME280;63906;55.686;37.532;2024-02-04T12:01:09;96496.44;;;2.30;90.21
75312;BME280;63906;55.686;37.532;2024-02-04T12:06:10;96466.97;;;2.61;91.02
75312;BME280;63906;55.686;37.532;2024-02-04T12:11:15;96480.91;;;2.79;91.22
75312;BME280;63906;55.686;37.532;2024-02-04T12:16:17;96490.72;;;2.40;90.31
75312;BME280;63906;55.686;37.532;2024-02-04T12:21:18;96412.03;;;1.59;90.58
75312;BME280;63906;55.686;37.532;2024-02-04T12:26:19;96505.97;;;2.11;88.99
75312;BME280;63906;55.686;37.532;2024-02-04T12:31:21;96494.38;;;1.89;89.66
75312;BME280;63906;55.686;37.532;2024-02-04T12:36:22;96531.63;;;1.70;88.80
75312;BME280;63906;55.686;37.532;2024-02-04T12:41:23;96504.41;;;1.54;90.98
75312;BME280;63906;55.686;37.532;2024-02-04T12:46:24;96518.22;;;1.41;90.79
75312;BME280;63906;55.686;37.532;2024-02-04T12:51:30;96481.69;;;1.18;90.52
75312;BME280;63906;55.686;37.532;2024-02-04T12:56:46;96506.34;;;1.27;91.52
75312;BME280;63906;55.686;37.532;2024-02-04T13:01:51;96495.16;;;1.33;90.83
75312;BME280;63906;55.686;37.532;2024-02-04T13:06:52;96491.97;;;1.38;91.07
75312;BME280;63906;55.686;37.532;2024-02-04T13:12:02;96499.47;;;1.46;92.26
75312;BME280;63906;55.686;37.532;2024-02-04T13:17:06;96497.13;;;1.38;91.41
75312;BME280;63906;55.686;37.532;2024-02-04T13:22:07;96448.91;;;0.98;92.37
75312;BME280;63906;55.686;37.532;2024-02-04T13:27:10;96515.97;;;1.51;92.98
75312;BME280;63906;55.686;37.532;2024-02-04T13:32:10;96526.28;;;1.65;91.92
75312;BME280;63906;55.686;37.532;2024-02-04T13:37:11;96512.22;;;1.47;91.16
75312;BME280;63906;55.686;37.532;2024-02-04T13:42:11;96480.44;;;1.27;90.48
75312;BME280;63906;55.686;37.532;2024-02-04T13:47:12;96549.59;;;1.65;90.14
75312;BME280;63906;55.686;37.532;2024-02-04T13:52:12;96547.72;;;1.78;92.30
75312;BME280;63906;55.686;37.532;2024-02-04T13:57:13;96504.81;;;1.51;93.73
75312;BME280;63906;55.686;37.532;2024-02-04T14:02:13;96532.91;;;1.54;92.44
75312;BME280;63906;55.686;37.532;2024-02-04T14:07:14;96545.72;;;1.42;91.78
75312;BME280;63906;55.686;37.532;2024-02-04T14:12:14;96557.72;;;1.43;92.99
75312;BME280;63906;55.686;37.532;2024-02-04T14:17:15;96572.34;;;1.63;90.96
75312;BME280;63906;55.686;37.532;2024-02-04T14:22:16;96540.09;;;1.52;92.83
75312;BME280;63906;55.686;37.532;2024-02-04T14:27:19;96484.84;;;1.26;92.97
75312;BME280;63906;55.686;37.532;2024-02-04T14:32:20;96542.09;;;1.56;94.08
75312;BME280;63906;55.686;37.532;2024-02-04T14:37:20;96534.75;;;1.47;94.94
75312;BME280;63906;55.686;37.532;2024-02-04T14:42:21;96534.69;;;1.53;96.20
75312;BME280;63906;55.686;37.532;2024-02-04T14:47:21;96525.75;;;1.56;95.06
75312;BME280;63906;55.686;37.532;2024-02-04T14:52:22;96540.06;;;1.58;95.21
75312;BME280;63906;55.686;37.532;2024-02-04T14:57:22;96536.06;;;1.63;95.37
75312;BME280;63906;55.686;37.532;2024-02-04T15:02:23;96519.81;;;1.42;93.36
75312;BME280;63906;55.686;37.532;2024-02-04T15:07:24;96542.91;;;1.50;95.29
75312;BME280;63906;55.686;37.532;2024-02-04T15:12:25;96526.63;;;1.37;94.81
75312;BME280;63906;55.686;37.532;2024-02-04T15:17:25;96510.97;;;1.25;94.79
75312;BME280;63906;55.686;37.532;2024-02-04T15:22:26;96552.00;;;1.59;95.82
75312;BME280;63906;55.686;37.532;2024-02-04T15:27:27;96482.47;;;1.25;95.06
75312;BME280;63906;55.686;37.532;2024-02-04T15:32:29;96516.56;;;1.53;94.03
75312;BME280;63906;55.686;37.532;2024-02-04T15:37:29;96542.44;;;1.60;94.96
75312;BME280;63906;55.686;37.532;2024-02-04T15:42:30;96520.03;;;1.41;95.46
75312;BME280;63906;55.686;37.532;2024-02-04T15:47:31;96487.66;;;1.25;95.59
75312;BME280;63906;55.686;37.532;2024-02-04T15:52:34;96546.84;;;1.59;96.29
75312;BME280;63906;55.686;37.532;2024-02-04T15:57:36;96532.06;;;1.60;96.80
75312;BME280;63906;55.686;37.532;2024-02-04T16:02:38;96517.03;;;1.44;94.26
75312;BME280;63906;55.686;37.532;2024-02-04T16:07:38;96537.56;;;1.45;96.32
75312;BME280;63906;55.686;37.532;2024-02-04T16:12:40;96510.53;;;1.59;95.00
75312;BME280;63906;55.686;37.532;2024-02-04T16:17:42;96502.28;;;1.44;95.96
75312;BME280;63906;55.686;37.532;2024-02-04T16:22:42;96521.00;;;1.46;96.53
75312;BME280;63906;55.686;37.532;2024-02-04T16:27:44;96540.19;;;1.70;96.75
75312;BME280;63906;55.686;37.532;2024-02-04T16:32:47;96529.28;;;1.61;96.87
75312;BME280;63906;55.686;37.532;2024-02-04T16:37:48;96524.28;;;1.60;97.63
75312;BME280;63906;55.686;37.532;2024-02-04T16:42:48;96525.59;;;1.76;97.26
75312;BME280;63906;55.686;37.532;2024-02-04T16:47:49;96520.88;;;1.66;94.82
75312;BME280;63906;55.686;37.532;2024-02-04T16:52:49;96520.03;;;1.72;95.43
75312;BME280;63906;55.686;37.532;2024-02-04T16:57:50;96428.53;;;1.08;95.02
75312;BME280;63906;55.686;37.532;2024-02-04T17:02:51;96515.84;;;1.71;95.16
75312;BME280;63906;55.686;37.532;2024-02-04T17:07:53;96496.00;;;1.58;94.83
75312;BME280;63906;55.686;37.532;2024-02-04T17:12:54;96502.59;;;1.54;95.43
75312;BME280;63906;55.686;37.532;2024-02-04T17:18:02;96469.00;;;1.41;95.52
75312;BME280;63906;55.686;37.532;2024-02-04T17:23:08;96440.63;;;1.21;96.18
75312;BME280;63906;55.686;37.532;2024-02-04T17:28:10;96489.91;;;1.46;96.45
75312;BME280;63906;55.686;37.532;2024-02-04T17:33:13;96501.63;;;1.49;96.15
75312;BME280;63906;55.686;37.532;2024-02-04T17:38:16;96503.72;;;1.33;97.45
75312;BME280;63906;55.686;37.532;2024-02-04T17:43:18;96485.72;;;1.14;99.13
75312;BME280;63906;55.686;37.532;2024-02-04T17:48:21;96489.25;;;1.19;98.79
75312;BME280;63906;55.686;37.532;2024-02-04T17:53:21;96487.28;;;1.15;99.34
75312;BME280;63906;55.686;37.532;2024-02-04T17:58:22;96470.63;;;0.97;99.65
75312;BME280;63906;55.686;37.532;2024-02-04T18:03:23;96494.13;;;1.02;100.00
75312;BME280;63906;55.686;37.532;2024-02-04T18:08:24;96497.25;;;1.11;100.00
75312;BME280;63906;55.686;37.532;2024-02-04T18:13:28;96459.13;;;0.87;99.92
75312;BME280;63906;55.686;37.532;2024-02-04T18:18:28;96508.06;;;1.01;99.65
75312;BME280;63906;55.686;37.532;2024-02-04T18:23:29;96499.59;;;0.81;100.00
75312;BME280;63906;55.686;37.532;2024-02-04T18:28:29;96509.53;;;0.84;100.00
75312;BME280;63906;55.686;37.532;2024-02-04T18:33:32;96486.69;;;0.68;100.00
75312;BME280;63906;55.686;37.532;2024-02-04T18:38:33;96505.34;;;0.83;100.00
75312;BME280;63906;55.686;37.532;2024-02-04T18:43:33;96460.06;;;0.47;100.00
75312;BME280;63906;55.686;37.532;2024-02-04T18:48:34;96525.31;;;0.76;100.00
75312;BME280;63906;55.686;37.532;2024-02-04T18:53:35;96528.66;;;0.83;100.00
75312;BME280;63906;55.686;37.532;2024-02-04T18:58:35;96518.28;;;0.90;100.00
75312;BME280;63906;55.686;37.532;2024-02-04T19:03:36;96541.16;;;0.93;100.00
75312;BME280;63906;55.686;37.532;2024-02-04T19:08:37;96531.19;;;0.96;100.00
75312;BME280;63906;55.686;37.532;2024-02-04T19:13:37;96537.22;;;0.84;100.00
75312;BME280;63906;55.686;37.532;2024-02-04T19:18:38;96515.75;;;0.70;100.00
75312;BME280;63906;55.686;37.532;2024-02-04T19:23:39;96554.94;;;0.93;100.00
75312;BME280;63906;55.686;37.532;2024-02-04T19:28:40;96518.72;;;0.73;100.00
75312;BME280;63906;55.686;37.532;2024-02-04T19:33:40;96536.81;;;0.80;100.00
75312;BME280;63906;55.686;37.532;2024-02-04T19:38:41;96542.19;;;0.85;100.00
75312;BME280;63906;55.686;37.532;2024-02-04T19:43:41;96537.25;;;0.77;100.00
75312;BME280;63906;55.686;37.532;2024-02-04T19:48:41;96534.47;;;0.72;100.00
75312;BME280;63906;55.686;37.532;2024-02-04T19:53:42;96542.22;;;0.72;100.00
75312;BME280;63906;55.686;37.532;2024-02-04T19:58:42;96540.22;;;0.74;100.00
75312;BME280;63906;55.686;37.532;2024-02-04T20:03:43;96528.28;;;0.73;100.00
75312;BME280;63906;55.686;37.532;2024-02-04T20:08:43;96535.84;;;0.74;100.00
75312;BME280;63906;55.686;37.532;2024-02-04T20:13:44;96542.44;;;0.70;100.00
75312;BME280;63906;55.686;37.532;2024-02-04T20:18:47;96564.09;;;0.83;100.00
75312;BME280;63906;55.686;37.532;2024-02-04T20:23:49;96535.69;;;0.63;100.00
75312;BME280;63906;55.686;37.532;2024-02-04T20:28:50;96551.19;;;0.76;100.00
75312;BME280;63906;55.686;37.532;2024-02-04T20:33:51;96567.28;;;0.85;100.00
75312;BME280;63906;55.686;37.532;2024-02-04T20:38:56;96555.56;;;0.75;100.00
75312;BME280;63906;55.686;37.532;2024-02-04T20:43:58;96552.78;;;0.77;100.00
75312;BME280;63906;55.686;37.532;2024-02-04T20:49:05;96494.56;;;0.28;100.00
75312;BME280;63906;55.686;37.532;2024-02-04T20:54:07;96536.13;;;0.33;100.00
75312;BME280;63906;55.686;37.532;2024-02-04T20:59:08;96436.75;;;-0.31;100.00
75312;BME280;63906;55.686;37.532;2024-02-04T21:04:09;96520.38;;;0.41;100.00
75312;BME280;63906;55.686;37.532;2024-02-04T21:09:10;96512.28;;;0.31;100.00
75312;BME280;63906;55.686;37.532;2024-02-04T21:14:11;96572.09;;;0.68;100.00
75312;BME280;63906;55.686;37.532;2024-02-04T21:19:11;96563.91;;;0.77;100.00
75312;BME280;63906;55.686;37.532;2024-02-04T21:24:12;96544.84;;;0.59;100.00
75312;BME280;63906;55.686;37.532;2024-02-04T21:29:12;96520.97;;;0.43;100.00
75312;BME280;63906;55.686;37.532;2024-02-04T21:34:13;96527.56;;;0.39;100.00
75312;BME280;63906;55.686;37.532;2024-02-04T21:39:14;96543.47;;;0.56;100.00
75312;BME280;63906;55.686;37.532;2024-02-04T21:44:16;96532.91;;;0.58;100.00
75312;BME280;63906;55.686;37.532;2024-02-04T21:49:17;96555.97;;;0.72;100.00
75312;BME280;63906;55.686;37.532;2024-02-04T21:54:18;96566.31;;;0.72;100.00
75312;BME280;63906;55.686;37.532;2024-02-04T21:59:18;96546.84;;;0.57;99.58
75312;BME280;63906;55.686;37.532;2024-02-04T22:04:22;96541.06;;;0.54;99.26
75312;BME280;63906;55.686;37.532;2024-02-04T22:09:23;96536.13;;;0.40;99.49
75312;BME280;63906;55.686;37.532;2024-02-04T22:14:23;96544.09;;;0.38;99.15
75312;BME280;63906;55.686;37.532;2024-02-04T22:19:24;96563.78;;;0.39;99.66
75312;BME280;63906;55.686;37.532;2024-02-04T22:24:24;96561.59;;;0.36;99.54
75312;BME280;63906;55.686;37.532;2024-02-04T22:29:25;96553.25;;;0.28;99.26
75312;BME280;63906;55.686;37.532;2024-02-04T22:34:25;96566.41;;;0.19;99.30
75312;BME280;63906;55.686;37.532;2024-02-04T22:39:27;96549.69;;;0.09;98.53
75312;BME280;63906;55.686;37.532;2024-02-04T22:44:27;96582.28;;;0.23;98.28
75312;BME280;63906;55.686;37.532;2024-02-04T22:49:28;96593.25;;;0.25;98.05
75312;BME280;63906;55.686;37.532;2024-02-04T22:54:28;96550.84;;;0.06;99.39
75312;BME280;63906;55.686;37.532;2024-02-04T22:59:29;96552.84;;;0.04;97.55
75312;BME280;63906;55.686;37.532;2024-02-04T23:04:31;96555.66;;;0.03;97.54
75312;BME280;63906;55.686;37.532;2024-02-04T23:09:35;96571.56;;;0.13;97.35
75312;BME280;63906;55.686;37.532;2024-02-04T23:14:37;96574.94;;;0.20;97.19
75312;BME280;63906;55.686;37.532;2024-02-04T23:19:37;96548.25;;;-0.07;96.18
75312;BME280;63906;55.686;37.532;2024-02-04T23:24:38;96530.59;;;-0.17;96.82
75312;BME280;63906;55.686;37.532;2024-02-04T23:29:38;96534.53;;;-0.14;97.74
75312;BME280;63906;55.686;37.532;2024-02-04T23:34:39;96546.47;;;-0.07;96.59
75312;BME280;63906;55.686;37.532;2024-02-04T23:39:39;96534.34;;;-0.13;95.89
75312;BME280;63906;55.686;37.532;2024-02-04T23:44:40;96535.53;;;-0.29;95.36
75312;BME280;63906;55.686;37.532;2024-02-04T23:49:40;96540.50;;;-0.34;95.05
75312;BME280;63906;55.686;37.532;2024-02-04T23:54:42;96538.31;;;-0.43;96.41
75312;BME280;63906;55.686;37.532;2024-02-04T23:59:42;96528.94;;;-0.44;96.01
